Time;durP1;ratioP1;P1;durP2;ratioP2;P2;SDS_P1;SDS_P2;PMS_P1;PMS_P2;Temp;Humidity;BMP_temperature;BMP_pressure;BME280_temperature;BME280_humidity;BME280_pressure;Samples;Min_cycle;Max_cycle;Signal;HPM_P1;HPM_P2
2021/09/23 00:02:14;;;;;;;0.10;0.10;;;9.60;97.20;;;;;;5015166;28;20082;-81
2021/09/23 00:04:40;;;;;;;0.10;0.10;;;9.50;97.40;;;;;;5016679;28;20097;-81
2021/09/23 00:07:06;;;;;;;0.00;0.00;;;9.50;97.60;;;;;;5033194;28;20094;-80
2021/09/23 00:09:31;;;;;;;0.10;0.10;;;9.50;97.50;;;;;;5015216;28;20080;-81
2021/09/23 00:11:58;;;;;;;0.10;0.10;;;9.50;97.70;;;;;;5015262;28;20098;-81
2021/09/23 00:14:24;;;;;;;0.10;0.10;;;9.50;97.70;;;;;;5032921;28;20157;-81
2021/09/23 00:16:50;;;;;;;0.10;0.10;;;9.60;97.70;;;;;;5015364;28;20618;-81
2021/09/23 00:19:16;;;;;;;0.10;0.10;;;9.50;97.90;;;;;;5032614;28;20070;-81
2021/09/23 00:21:42;;;;;;;0.10;0.10;;;9.50;98.00;;;;;;5033024;28;20078;-81
2021/09/23 00:24:08;;;;;;;0.10;0.10;;;9.60;98.00;;;;;;5014959;28;20101;-81
2021/09/23 00:26:33;;;;;;;0.10;0.10;;;9.60;97.90;;;;;;5033046;28;20112;-81
2021/09/23 00:28:59;;;;;;;0.10;0.10;;;9.60;97.90;;;;;;5014946;28;20081;-81
2021/09/23 00:31:25;;;;;;;0.10;0.10;;;9.60;97.90;;;;;;5032797;28;20228;-81
2021/09/23 00:33:51;;;;;;;0.10;0.10;;;9.60;98.10;;;;;;5014879;28;20085;-81
2021/09/23 00:36:17;;;;;;;0.10;0.10;;;9.60;97.90;;;;;;5032570;28;20121;-81
2021/09/23 00:38:42;;;;;;;0.10;0.10;;;9.60;97.90;;;;;;5032572;28;20097;-81
2021/09/23 00:41:08;;;;;;;0.10;0.10;;;9.60;97.70;;;;;;5035790;28;20392;-81
2021/09/23 00:43:34;;;;;;;0.10;0.10;;;9.60;97.80;;;;;;5036089;28;20094;-81
2021/09/23 00:46:00;;;;;;;0.10;0.10;;;9.60;97.80;;;;;;5018122;28;20070;-81
2021/09/23 00:48:25;;;;;;;0.08;0.08;;;9.60;97.90;;;;;;5018006;28;20551;-81
2021/09/23 00:50:51;;;;;;;0.10;0.10;;;9.60;97.90;;;;;;5017986;28;20070;-81
2021/09/23 00:53:20;;;;;;;0.10;0.10;;;9.60;97.70;;;;;;5017925;28;20105;-81
2021/09/23 00:55:49;;;;;;;0.10;0.10;;;9.60;97.80;;;;;;5017901;28;20089;-81
2021/09/23 00:58:16;;;;;;;0.10;0.10;;;9.60;97.90;;;;;;5017930;28;20090;-81
2021/09/23 01:00:42;;;;;;;0.10;0.10;;;9.60;98.00;;;;;;5017887;28;20132;-80
2021/09/23 01:03:09;;;;;;;0.10;0.10;;;9.60;98.00;;;;;;5017760;28;20102;-81
2021/09/23 01:05:35;;;;;;;0.10;0.10;;;9.60;97.90;;;;;;5019443;28;20108;-81
2021/09/23 01:08:01;;;;;;;0.10;0.10;;;9.60;98.20;;;;;;5017699;28;20539;-81
2021/09/23 01:10:27;;;;;;;0.00;0.00;;;9.60;98.20;;;;;;5017771;28;20113;-81
2021/09/23 01:12:52;;;;;;;0.10;0.10;;;9.60;98.30;;;;;;5017648;28;20093;-81
2021/09/23 01:15:18;;;;;;;0.10;0.10;;;9.70;98.10;;;;;;5035449;28;20112;-81
2021/09/23 01:17:45;;;;;;;0.10;0.10;;;9.60;97.80;;;;;;5017542;28;20121;-81
2021/09/23 01:20:12;;;;;;;0.10;0.10;;;9.60;98.00;;;;;;5017439;28;20066;-80
2021/09/23 01:22:38;;;;;;;0.10;0.10;;;9.60;98.20;;;;;;5017355;28;20113;-81
2021/09/23 01:25:05;;;;;;;0.10;0.10;;;9.60;98.30;;;;;;5017115;28;20169;-81
2021/09/23 01:27:33;;;;;;;0.10;0.10;;;9.60;98.30;;;;;;5035186;28;20097;-81
2021/09/23 01:29:59;;;;;;;0.10;0.10;;;9.70;98.40;;;;;;5017344;28;20554;-81
2021/09/23 01:32:25;;;;;;;0.10;0.10;;;9.60;98.30;;;;;;5017259;28;20136;-81
2021/09/23 01:34:51;;;;;;;0.10;0.10;;;9.70;98.20;;;;;;5017203;28;20094;-81
2021/09/23 01:37:16;;;;;;;0.10;0.10;;;9.70;98.20;;;;;;5035350;28;20598;-81
2021/09/23 01:39:42;;;;;;;0.10;0.10;;;9.70;98.00;;;;;;5034943;28;20066;-81
2021/09/23 01:42:08;;;;;;;0.10;0.10;;;9.70;98.10;;;;;;5035337;28;20439;-81
2021/09/23 01:44:34;;;;;;;0.10;0.10;;;9.70;98.30;;;;;;5017155;28;20160;-81
2021/09/23 01:47:00;;;;;;;0.00;0.00;;;9.70;98.20;;;;;;5016879;28;20094;-81
2021/09/23 01:49:26;;;;;;;0.10;0.10;;;9.70;98.10;;;;;;5034757;28;20484;-81
2021/09/23 01:51:52;;;;;;;0.10;0.10;;;9.70;98.20;;;;;;5016826;28;20177;-81
2021/09/23 01:54:18;;;;;;;0.10;0.10;;;9.70;98.40;;;;;;5034584;28;20568;-81
2021/09/23 01:56:43;;;;;;;0.10;0.10;;;9.60;98.30;;;;;;5016942;28;20117;-81
2021/09/23 01:59:09;;;;;;;0.10;0.10;;;9.60;98.30;;;;;;5016868;28;20478;-81
2021/09/23 02:01:37;;;;;;;0.10;0.10;;;9.60;98.30;;;;;;5034434;28;20097;-81
2021/09/23 02:04:03;;;;;;;0.10;0.10;;;9.60;98.60;;;;;;5016810;28;20250;-81
2021/09/23 02:06:29;;;;;;;0.10;0.10;;;9.50;98.70;;;;;;5018142;28;20101;-81
2021/09/23 02:08:54;;;;;;;0.10;0.10;;;9.50;98.90;;;;;;5016679;28;20070;-81
2021/09/23 02:11:21;;;;;;;0.10;0.10;;;9.40;99.30;;;;;;5034567;28;20148;-81
2021/09/23 02:13:46;;;;;;;0.05;0.05;;;9.50;99.40;;;;;;5034287;28;20070;-81
2021/09/23 02:16:12;;;;;;;0.10;0.10;;;9.50;99.40;;;;;;5016522;28;20112;-81
2021/09/23 02:18:38;;;;;;;0.10;0.10;;;9.50;99.70;;;;;;5034159;28;20146;-81
2021/09/23 02:21:04;;;;;;;0.10;0.10;;;9.50;99.90;;;;;;5034383;28;20077;-80
2021/09/23 02:23:30;;;;;;;0.10;0.10;;;9.50;99.70;;;;;;5016433;28;20504;-81
2021/09/23 02:25:56;;;;;;;0.10;0.10;;;9.50;99.60;;;;;;5034161;28;20427;-80
2021/09/23 02:28:21;;;;;;;0.10;0.10;;;9.50;99.70;;;;;;5016115;28;20086;-81
2021/09/23 02:30:47;;;;;;;0.10;0.10;;;9.50;99.70;;;;;;5034043;28;20666;-80
2021/09/23 02:33:13;;;;;;;0.10;0.10;;;9.50;99.50;;;;;;5033941;28;20105;-81
2021/09/23 02:35:38;;;;;;;0.10;0.10;;;9.50;99.70;;;;;;5016179;28;20536;-81
2021/09/23 02:38:04;;;;;;;0.00;0.00;;;9.50;99.60;;;;;;5033816;28;20090;-81
2021/09/23 02:40:30;;;;;;;0.10;0.10;;;9.50;99.80;;;;;;5033774;28;20161;-81
2021/09/23 02:42:56;;;;;;;0.10;0.10;;;9.50;99.50;;;;;;5016019;28;20094;-81
2021/09/23 02:45:21;;;;;;;0.10;0.10;;;9.50;99.60;;;;;;5033809;28;20215;-81
2021/09/23 02:47:47;;;;;;;0.10;0.10;;;9.50;99.90;;;;;;5015957;28;20155;-81
2021/09/23 02:50:13;;;;;;;0.10;0.10;;;9.50;99.90;;;;;;5015741;28;20094;-81
2021/09/23 02:52:38;;;;;;;0.10;0.10;;;9.50;99.90;;;;;;5033701;28;20153;-81
2021/09/23 02:55:05;;;;;;;0.10;0.10;;;9.50;99.90;;;;;;5015792;28;20077;-80
2021/09/23 02:57:31;;;;;;;0.10;0.10;;;9.60;99.90;;;;;;5033411;28;20106;-81
2021/09/23 02:59:57;;;;;;;0.10;0.10;;;9.60;99.90;;;;;;5015804;28;20424;-81
2021/09/23 03:02:22;;;;;;;0.10;0.10;;;9.60;99.90;;;;;;5015421;28;20144;-81
2021/09/23 03:04:48;;;;;;;0.10;0.10;;;9.60;99.90;;;;;;5035033;28;20090;-81
2021/09/23 03:07:14;;;;;;;0.10;0.10;;;9.50;99.90;;;;;;5015872;28;20090;-81
2021/09/23 03:09:39;;;;;;;0.10;0.10;;;9.50;99.90;;;;;;5015621;28;20070;-81
2021/09/23 03:12:05;;;;;;;0.10;0.10;;;9.50;99.90;;;;;;5015848;28;20181;-81
2021/09/23 03:14:31;;;;;;;0.10;0.10;;;9.50;99.90;;;;;;5015571;28;20070;-81
2021/09/23 03:16:57;;;;;;;0.10;0.10;;;9.50;99.90;;;;;;5033522;28;20113;-81
2021/09/23 03:19:22;;;;;;;0.10;0.10;;;9.50;99.90;;;;;;5033164;28;20070;-80
2021/09/23 03:21:48;;;;;;;0.10;0.10;;;9.50;99.90;;;;;;5015549;28;20447;-80
2021/09/23 03:24:14;;;;;;;0.10;0.10;;;9.50;99.90;;;;;;5033091;28;20081;-80
2021/09/23 03:26:40;;;;;;;0.10;0.10;;;9.50;99.90;;;;;;5015407;28;20633;-80
2021/09/23 03:29:08;;;;;;;0.10;0.10;;;9.50;99.90;;;;;;5015254;28;20077;-80
2021/09/23 03:31:34;;;;;;;0.10;0.10;;;9.50;99.90;;;;;;5015287;28;20077;-80
2021/09/23 03:34:00;;;;;;;0.10;0.10;;;9.60;99.90;;;;;;5015265;28;20073;-80
2021/09/23 03:36:26;;;;;;;0.00;0.00;;;9.50;99.90;;;;;;5015338;28;20583;-80
2021/09/23 03:38:53;;;;;;;0.00;0.00;;;9.50;99.90;;;;;;5033076;28;20132;-81
2021/09/23 03:41:20;;;;;;;0.10;0.10;;;9.60;99.90;;;;;;5033157;28;20101;-80
2021/09/23 03:43:45;;;;;;;0.10;0.10;;;9.50;99.90;;;;;;5033380;28;20506;-80
2021/09/23 03:46:11;;;;;;;0.10;0.10;;;9.60;99.90;;;;;;5015095;28;20162;-80
2021/09/23 03:48:37;;;;;;;0.10;0.10;;;9.60;99.90;;;;;;5015233;28;20098;-80
2021/09/23 03:51:03;;;;;;;0.10;0.10;;;9.60;99.90;;;;;;5015094;28;20528;-80
2021/09/23 03:53:29;;;;;;;0.10;0.10;;;9.60;99.90;;;;;;5032733;28;20548;-80
2021/09/23 03:55:55;;;;;;;0.10;0.10;;;9.50;99.90;;;;;;5032951;28;20117;-80
2021/09/23 03:58:21;;;;;;;0.10;0.10;;;9.50;99.90;;;;;;5015028;28;20543;-79
2021/09/23 04:00:47;;;;;;;0.10;0.10;;;9.50;99.90;;;;;;5032591;28;20082;-79
2021/09/23 04:03:13;;;;;;;0.10;0.10;;;9.50;99.90;;;;;;5032523;28;20089;-80
2021/09/23 04:05:39;;;;;;;0.00;0.00;;;9.50;99.90;;;;;;5014614;28;20443;-80
2021/09/23 04:08:04;;;;;;;0.10;0.10;;;9.40;99.90;;;;;;5013592;28;20089;-80
2021/09/23 04:10:31;;;;;;;0.10;0.10;;;9.50;99.90;;;;;;5014927;28;20089;-81
2021/09/23 04:12:57;;;;;;;0.05;0.05;;;9.50;99.90;;;;;;5014792;28;20642;-81
2021/09/23 04:15:24;;;;;;;0.10;0.10;;;9.50;99.90;;;;;;5017030;28;20073;-81
2021/09/23 04:17:51;;;;;;;0.10;0.10;;;9.50;99.90;;;;;;5018367;28;20117;-82
2021/09/23 04:20:17;;;;;;;0.10;0.10;;;9.50;99.90;;;;;;5018494;28;20528;-80
2021/09/23 04:22:43;;;;;;;0.10;0.10;;;9.60;99.90;;;;;;5036275;28;20086;-80
2021/09/23 04:25:09;;;;;;;0.10;0.10;;;9.60;99.90;;;;;;5018471;28;20070;-80
2021/09/23 04:27:35;;;;;;;0.10;0.10;;;9.60;99.90;;;;;;5018454;28;20094;-79
2021/09/23 04:30:01;;;;;;;0.10;0.10;;;9.60;99.90;;;;;;5036324;28;20593;-81
2021/09/23 04:32:26;;;;;;;0.10;0.10;;;9.60;99.90;;;;;;5018486;28;20102;-80
2021/09/23 04:34:52;;;;;;;0.10;0.10;;;9.60;99.90;;;;;;5018391;28;20120;-80
2021/09/23 04:37:18;;;;;;;0.10;0.10;;;9.60;99.90;;;;;;5035905;28;20117;-80
2021/09/23 04:39:44;;;;;;;0.10;0.10;;;9.60;99.90;;;;;;5018210;28;20161;-80
2021/09/23 04:42:09;;;;;;;0.10;0.10;;;9.70;99.90;;;;;;5018220;28;20094;-80
2021/09/23 04:44:35;;;;;;;0.10;0.10;;;9.70;99.90;;;;;;5035874;28;20149;-80
2021/09/23 04:47:03;;;;;;;0.10;0.10;;;9.70;99.90;;;;;;5017722;28;20098;-80
2021/09/23 04:49:30;;;;;;;0.10;0.10;;;9.70;99.90;;;;;;5034878;28;20153;-80
2021/09/23 04:51:56;;;;;;;0.10;0.10;;;9.80;99.90;;;;;;5016740;28;20090;-80
2021/09/23 04:54:22;;;;;;;0.10;0.10;;;9.80;99.90;;;;;;5034109;28;20070;-80
2021/09/23 04:56:47;;;;;;;0.10;0.10;;;9.80;99.90;;;;;;5016154;28;20452;-80
2021/09/23 04:59:13;;;;;;;0.10;0.10;;;9.90;99.90;;;;;;5017569;28;20524;-80
2021/09/23 05:01:39;;;;;;;0.10;0.10;;;9.90;99.90;;;;;;5017102;28;20600;-81
2021/09/23 05:04:05;;;;;;;0.10;0.10;;;9.90;99.90;;;;;;5017000;28;20097;-80
2021/09/23 05:06:32;;;;;;;0.08;0.08;;;9.90;99.90;;;;;;5058471;23;20109;-70
2021/09/23 05:08:58;;;;;;;0.10;0.10;;;9.90;99.90;;;;;;5051306;28;20077;-72
2021/09/23 05:11:25;;;;;;;0.10;0.10;;;9.90;99.90;;;;;;5052160;28;20082;-76
2021/09/23 05:13:52;;;;;;;0.03;0.03;;;9.90;99.90;;;;;;5050050;28;20523;-76
2021/09/23 05:16:21;;;;;;;0.10;0.10;;;9.90;99.90;;;;;;5053165;28;20110;-72
2021/09/23 05:18:47;;;;;;;0.10;0.10;;;10.00;99.90;;;;;;5052038;28;20069;-71
2021/09/23 05:21:13;;;;;;;0.10;0.10;;;10.00;99.90;;;;;;5051437;28;20155;-75
2021/09/23 05:23:39;;;;;;;0.10;0.10;;;10.10;99.90;;;;;;5052079;28;20092;-73
2021/09/23 05:26:05;;;;;;;0.10;0.10;;;10.10;99.90;;;;;;5048680;28;20602;-74
2021/09/23 05:28:32;;;;;;;0.10;0.10;;;10.10;99.90;;;;;;5050557;28;20077;-77
2021/09/23 05:30:59;;;;;;;0.10;0.10;;;10.00;99.90;;;;;;5049519;28;20190;-74
2021/09/23 05:33:26;;;;;;;0.10;0.10;;;10.10;99.90;;;;;;5050462;28;20543;-72
2021/09/23 05:35:52;;;;;;;0.10;0.10;;;10.10;99.90;;;;;;5050391;28;20106;-74
2021/09/23 05:38:19;;;;;;;0.10;0.10;;;10.30;99.90;;;;;;5050597;28;20164;-77
2021/09/23 05:40:44;;;;;;;0.10;0.10;;;10.30;99.90;;;;;;5052043;28;20090;-75
2021/09/23 05:43:13;;;;;;;0.10;0.10;;;10.40;99.90;;;;;;5051740;28;20093;-76
2021/09/23 05:45:39;;;;;;;0.10;0.10;;;10.50;99.90;;;;;;5049655;28;20168;-71
2021/09/23 05:48:05;;;;;;;0.10;0.10;;;10.60;99.90;;;;;;5050956;28;20148;-77
2021/09/23 05:50:31;;;;;;;0.10;0.10;;;10.70;99.90;;;;;;5049612;28;20097;-75
2021/09/23 05:52:58;;;;;;;0.10;0.10;;;10.70;99.20;;;;;;5050137;28;20108;-75
2021/09/23 05:55:24;;;;;;;0.10;0.10;;;10.70;98.40;;;;;;5050320;28;20120;-74
2021/09/23 05:57:50;;;;;;;0.05;0.05;;;10.70;98.50;;;;;;5049514;28;20224;-74
2021/09/23 06:00:18;;;;;;;0.10;0.10;;;10.70;98.60;;;;;;5048228;28;20561;-73
2021/09/23 06:02:45;;;;;;;0.10;0.10;;;10.80;98.10;;;;;;5047460;28;20085;-73
2021/09/23 06:05:14;;;;;;;0.10;0.10;;;10.80;97.80;;;;;;5051218;28;20085;-73
2021/09/23 06:07:41;;;;;;;0.10;0.10;;;10.80;97.60;;;;;;5049579;28;20083;-73
2021/09/23 06:10:11;;;;;;;0.10;0.10;;;10.80;97.70;;;;;;5049064;28;20100;-75
2021/09/23 06:12:37;;;;;;;0.10;0.10;;;10.80;97.30;;;;;;5050784;28;20099;-70
2021/09/23 06:15:04;;;;;;;0.10;0.10;;;10.80;97.50;;;;;;5050853;28;20595;-74
2021/09/23 06:17:30;;;;;;;0.10;0.10;;;10.90;97.10;;;;;;5053479;28;20513;-73
2021/09/23 06:20:05;;;;;;;0.10;0.10;;;10.90;97.10;;;;;;5074430;28;20180;-75
2021/09/23 06:22:35;;;;;;;0.10;0.10;;;10.90;97.10;;;;;;5063135;28;20084;-73
2021/09/23 06:25:01;;;;;;;0.10;0.10;;;11.00;97.40;;;;;;5075457;28;20309;-73
2021/09/23 06:27:27;;;;;;;0.10;0.10;;;11.20;97.10;;;;;;5070407;28;20079;-73
2021/09/23 06:29:56;;;;;;;0.10;0.10;;;11.40;96.80;;;;;;5069074;28;20077;-74
2021/09/23 06:32:21;;;;;;;0.10;0.10;;;11.50;96.00;;;;;;5050203;28;20073;-74
2021/09/23 06:34:47;;;;;;;0.10;0.10;;;11.60;95.60;;;;;;5050764;28;20077;-76
2021/09/23 06:37:13;;;;;;;0.10;0.10;;;11.80;95.00;;;;;;5050020;28;20154;-74
2021/09/23 06:39:40;;;;;;;0.10;0.10;;;11.90;94.20;;;;;;5053362;28;20069;-73
2021/09/23 06:42:06;;;;;;;0.10;0.10;;;12.00;92.90;;;;;;5053459;28;20602;-78
2021/09/23 06:44:33;;;;;;;0.10;0.10;;;12.00;92.30;;;;;;5071313;28;20498;-74
2021/09/23 06:46:59;;;;;;;0.08;0.08;;;12.00;92.00;;;;;;5052921;28;20118;-74
2021/09/23 06:49:25;;;;;;;0.10;0.10;;;12.00;91.50;;;;;;5070975;28;20146;-77
2021/09/23 06:51:52;;;;;;;0.10;0.10;;;11.90;91.30;;;;;;5072438;28;20084;-77
2021/09/23 06:54:18;;;;;;;0.10;0.10;;;11.90;91.20;;;;;;5070825;28;20066;-76
2021/09/23 06:56:44;;;;;;;0.10;0.10;;;11.80;91.10;;;;;;5053752;28;20117;-77
2021/09/23 06:59:09;;;;;;;0.10;0.10;;;11.80;90.90;;;;;;5071569;28;20073;-77
2021/09/23 07:01:36;;;;;;;0.10;0.10;;;11.70;91.30;;;;;;5071603;28;20089;-76
2021/09/23 07:04:02;;;;;;;0.10;0.10;;;11.70;91.50;;;;;;5070991;28;20062;-75
2021/09/23 07:06:28;;;;;;;0.10;0.10;;;11.70;90.90;;;;;;5070816;28;20105;-75
2021/09/23 07:08:54;;;;;;;0.10;0.10;;;11.70;91.00;;;;;;5069341;28;20586;-74
2021/09/23 07:11:21;;;;;;;0.10;0.10;;;11.70;91.20;;;;;;5049767;28;20097;-77
2021/09/23 07:13:48;;;;;;;0.10;0.10;;;11.70;91.50;;;;;;5050262;28;20122;-74
2021/09/23 07:16:14;;;;;;;0.10;0.10;;;11.80;91.50;;;;;;5050793;28;20113;-74
2021/09/23 07:18:40;;;;;;;0.10;0.10;;;11.90;91.20;;;;;;5067456;28;20104;-74
2021/09/23 07:21:07;;;;;;;0.10;0.10;;;12.00;90.50;;;;;;5067735;28;20112;-73
2021/09/23 07:23:34;;;;;;;0.03;0.03;;;12.00;90.30;;;;;;5046488;28;20084;-74
2021/09/23 07:26:02;;;;;;;0.10;0.10;;;12.00;90.30;;;;;;5047397;28;20111;-73
2021/09/23 07:28:28;;;;;;;0.10;0.10;;;12.10;90.20;;;;;;5047012;28;20081;-75
2021/09/23 07:30:54;;;;;;;0.10;0.10;;;12.10;89.50;;;;;;5064678;28;20091;-76
2021/09/23 07:33:20;;;;;;;0.00;0.00;;;12.20;89.10;;;;;;5063642;28;20123;-73
2021/09/23 07:35:46;;;;;;;0.10;0.10;;;12.20;89.10;;;;;;5044848;28;20081;-74
2021/09/23 07:38:11;;;;;;;0.10;0.10;;;12.20;89.30;;;;;;5064851;28;20073;-74
2021/09/23 07:40:37;;;;;;;0.10;0.10;;;12.30;88.10;;;;;;5045107;28;20609;-73
2021/09/23 07:43:04;;;;;;;0.10;0.10;;;12.30;88.10;;;;;;5046232;28;20073;-72
2021/09/23 07:45:30;;;;;;;0.10;0.10;;;12.30;88.10;;;;;;5046541;28;20081;-74
2021/09/23 07:47:56;;;;;;;0.10;0.10;;;12.30;88.00;;;;;;5046537;28;20131;-73
2021/09/23 07:50:22;;;;;;;0.10;0.10;;;12.40;88.10;;;;;;5070008;28;20566;-73
2021/09/23 07:52:47;;;;;;;0.10;0.10;;;12.50;87.70;;;;;;5053350;28;20077;-73
2021/09/23 07:55:13;;;;;;;0.10;0.10;;;12.60;87.10;;;;;;5051343;28;20176;-72
2021/09/23 07:57:39;;;;;;;0.10;0.10;;;12.70;86.40;;;;;;5070639;28;20108;-72
2021/09/23 08:00:06;;;;;;;0.10;0.10;;;12.80;86.40;;;;;;5053336;28;20092;-71
2021/09/23 08:02:31;;;;;;;0.10;0.10;;;13.10;86.40;;;;;;5053654;28;20092;-70
2021/09/23 08:04:57;;;;;;;0.10;0.10;;;13.30;84.80;;;;;;5073393;28;20054;-73
2021/09/23 08:07:23;;;;;;;0.10;0.10;;;13.50;84.00;;;;;;5074131;28;20093;-72
2021/09/23 08:09:49;;;;;;;0.10;0.10;;;13.70;83.60;;;;;;5072863;28;20097;-71
2021/09/23 08:12:19;;;;;;;0.10;0.10;;;13.90;82.40;;;;;;5073358;28;20123;-73
2021/09/23 08:14:45;;;;;;;0.10;0.10;;;13.90;80.90;;;;;;5053957;28;20545;-73
2021/09/23 08:17:10;;;;;;;0.10;0.10;;;14.00;80.80;;;;;;5051614;28;20108;-76
2021/09/23 08:19:37;;;;;;;0.10;0.10;;;14.00;80.10;;;;;;5051712;28;20465;-76
2021/09/23 08:22:07;;;;;;;0.10;0.10;;;13.90;79.70;;;;;;5068794;28;20088;-77
2021/09/23 08:24:34;;;;;;;0.10;0.10;;;13.90;80.80;;;;;;5069870;28;20069;-76
2021/09/23 08:27:00;;;;;;;0.10;0.10;;;13.90;82.60;;;;;;5069938;28;20100;-78
2021/09/23 08:29:26;;;;;;;0.10;0.10;;;13.90;82.50;;;;;;5071101;28;20069;-76
2021/09/23 08:31:52;;;;;;;0.10;0.10;;;13.80;81.90;;;;;;5053343;28;20093;-75
2021/09/23 08:34:18;;;;;;;0.10;0.10;;;13.60;81.90;;;;;;5051670;28;20073;-76
2021/09/23 08:36:45;;;;;;;0.10;0.10;;;13.50;81.40;;;;;;5053204;28;20109;-76
2021/09/23 08:39:11;;;;;;;0.10;0.10;;;13.30;81.20;;;;;;5052226;28;20076;-74
2021/09/23 08:41:37;;;;;;;0.10;0.10;;;13.10;81.60;;;;;;5069638;28;20111;-73
2021/09/23 08:44:03;;;;;;;0.00;0.00;;;12.90;82.00;;;;;;5070101;28;20072;-76
2021/09/23 08:46:31;;;;;;;0.10;0.10;;;12.80;82.20;;;;;;5069979;28;20149;-74
2021/09/23 08:48:57;;;;;;;0.10;0.10;;;12.70;82.80;;;;;;5051862;28;20530;-76
2021/09/23 08:51:24;;;;;;;0.10;0.10;;;12.60;83.20;;;;;;5068794;28;20089;-71
2021/09/23 08:53:50;;;;;;;0.10;0.10;;;12.50;83.50;;;;;;5052050;28;20084;-72
2021/09/23 08:56:19;;;;;;;0.00;0.00;;;12.40;83.90;;;;;;5050707;28;20685;-75
2021/09/23 08:58:45;;;;;;;0.10;0.10;;;12.40;83.90;;;;;;5068430;28;20062;-75
2021/09/23 09:01:15;;;;;;;0.10;0.10;;;12.40;84.20;;;;;;5071308;28;20084;-72
2021/09/23 09:03:41;;;;;;;0.10;0.10;;;12.30;84.40;;;;;;5072876;28;20160;-73
2021/09/23 09:06:12;;;;;;;0.10;0.10;;;12.30;85.00;;;;;;5074013;28;20127;-75
2021/09/23 09:08:39;;;;;;;0.10;0.10;;;12.30;85.40;;;;;;5054766;28;20123;-72
2021/09/23 09:11:08;;;;;;;0.10;0.10;;;12.20;86.20;;;;;;5072277;28;20168;-75
2021/09/23 09:13:38;;;;;;;0.10;0.10;;;12.20;86.20;;;;;;5071888;28;20080;-74
2021/09/23 09:16:16;;;;;;;0.10;0.10;;;12.20;86.50;;;;;;5054120;28;20501;-72
2021/09/23 09:18:43;;;;;;;0.10;0.10;;;12.10;87.50;;;;;;5050233;28;20628;-71
2021/09/23 09:21:12;;;;;;;0.10;0.10;;;12.10;88.30;;;;;;5068686;28;20108;-72
2021/09/23 09:23:52;;;;;;;0.10;0.10;;;12.10;88.60;;;;;;5051020;28;20494;-71
2021/09/23 09:26:41;;;;;;;0.10;0.10;;;12.10;88.90;;;;;;5070118;28;20164;-72
2021/09/23 09:29:09;;;;;;;0.10;0.10;;;12.10;88.80;;;;;;5053633;28;20551;-73
2021/09/23 09:31:37;;;;;;;0.03;0.03;;;12.10;89.10;;;;;;5050485;28;20097;-74
2021/09/23 09:34:04;;;;;;;0.10;0.10;;;12.10;89.00;;;;;;5050920;28;20081;-73
2021/09/23 09:36:32;;;;;;;0.10;0.10;;;12.10;89.10;;;;;;5070342;28;20105;-77
2021/09/23 09:39:16;;;;;;;0.10;0.10;;;12.00;89.60;;;;;;5054268;28;20081;-74
2021/09/23 09:41:48;;;;;;;0.10;0.10;;;12.00;90.00;;;;;;5071900;28;20081;-74
2021/09/23 09:44:15;;;;;;;0.10;0.10;;;12.10;90.10;;;;;;5073788;28;20613;-71
2021/09/23 09:46:55;;;;;;;0.10;0.10;;;11.90;90.20;;;;;;5055484;28;20597;-72
2021/09/23 09:49:23;;;;;;;0.10;0.10;;;11.80;90.40;;;;;;5055597;28;20077;-72
2021/09/23 09:51:52;;;;;;;0.10;0.10;;;11.80;91.00;;;;;;5075071;28;20483;-72
2021/09/23 09:54:20;;;;;;;0.10;0.10;;;11.80;91.50;;;;;;5074167;28;20517;-70
2021/09/23 09:56:54;;;;;;;0.10;0.10;;;11.80;92.10;;;;;;5058199;28;20141;-71
2021/09/23 09:59:21;;;;;;;0.10;0.10;;;11.80;92.30;;;;;;5052654;28;20518;-73
2021/09/23 10:01:50;;;;;;;0.10;0.10;;;11.90;92.60;;;;;;5053695;28;20097;-76
2021/09/23 10:04:18;;;;;;;0.10;0.10;;;12.00;92.20;;;;;;5052470;28;20073;-74
2021/09/23 10:06:44;;;;;;;0.10;0.10;;;11.90;92.00;;;;;;5054398;28;20162;-73
2021/09/23 10:09:15;;;;;;;0.00;0.00;;;11.90;91.90;;;;;;5070735;28;20122;-72
2021/09/23 10:11:46;;;;;;;0.10;0.10;;;11.80;92.20;;;;;;5071126;28;20147;-71
2021/09/23 10:14:13;;;;;;;0.10;0.10;;;11.80;92.50;;;;;;5070666;28;20073;-72
2021/09/23 10:16:40;;;;;;;0.10;0.10;;;11.90;92.20;;;;;;5070592;28;20116;-73
2021/09/23 10:19:06;;;;;;;0.10;0.10;;;11.90;92.00;;;;;;5068465;28;20069;-73
2021/09/23 10:21:33;;;;;;;0.10;0.10;;;11.90;92.20;;;;;;5067692;28;20762;-73
2021/09/23 10:24:01;;;;;;;0.10;0.10;;;11.90;91.90;;;;;;5067166;28;20065;-74
2021/09/23 10:26:34;;;;;;;0.10;0.10;;;12.00;92.20;;;;;;5050387;28;20123;-73
2021/09/23 10:29:02;;;;;;;0.10;0.10;;;12.00;92.20;;;;;;5049855;28;20092;-72
2021/09/23 10:31:33;;;;;;;0.10;0.10;;;12.10;92.00;;;;;;5049359;28;20099;-73
2021/09/23 10:34:01;;;;;;;0.00;0.00;;;12.20;91.30;;;;;;5067445;28;20065;-68
2021/09/23 10:36:37;;;;;;;0.17;0.10;;;12.30;91.40;;;;;;5065215;28;20112;-72
2021/09/23 10:39:07;;;;;;;0.10;0.10;;;12.50;91.20;;;;;;5065418;28;20073;-74
2021/09/23 10:41:36;;;;;;;0.10;0.10;;;12.70;91.40;;;;;;5068092;28;20305;-73
2021/09/23 10:44:02;;;;;;;0.10;0.10;;;13.00;90.80;;;;;;5050793;28;20168;-72
2021/09/23 10:46:28;;;;;;;0.00;0.00;;;13.20;90.40;;;;;;5066772;28;20281;-73
2021/09/23 10:48:56;;;;;;;0.10;0.10;;;13.40;90.10;;;;;;5067416;28;20088;-74
2021/09/23 10:51:22;;;;;;;0.10;0.10;;;13.60;89.20;;;;;;5052128;28;20092;-72
2021/09/23 10:53:52;;;;;;;0.10;0.10;;;13.90;88.30;;;;;;5070217;28;20068;-73
2021/09/23 10:56:20;;;;;;;0.10;0.10;;;14.10;86.80;;;;;;5067694;28;20093;-73
2021/09/23 10:58:48;;;;;;;0.10;0.10;;;14.20;86.60;;;;;;5047903;28;20079;-68
2021/09/23 11:01:35;;;;;;;0.10;0.10;;;14.50;87.10;;;;;;5066126;28;20543;-70
2021/09/23 11:04:02;;;;;;;0.00;0.00;;;15.00;84.30;;;;;;5048065;28;20569;-69
2021/09/23 11:06:42;;;;;;;0.10;0.10;;;15.40;84.00;;;;;;5066229;28;20108;-70
2021/09/23 11:09:24;;;;;;;0.05;0.05;;;15.70;80.80;;;;;;5066512;28;20069;-70
2021/09/23 11:11:53;;;;;;;0.10;0.10;;;15.60;79.50;;;;;;5047461;28;20089;-71
2021/09/23 11:14:20;;;;;;;0.10;0.10;;;15.50;79.60;;;;;;5049299;28;20168;-72
2021/09/23 11:16:57;;;;;;;0.10;0.10;;;15.30;78.90;;;;;;5068987;28;20100;-69
2021/09/23 11:19:24;;;;;;;0.10;0.10;;;15.20;78.70;;;;;;5051290;28;20130;-70
2021/09/23 11:21:53;;;;;;;0.00;0.00;;;14.90;78.80;;;;;;5053137;28;20109;-73
2021/09/23 11:24:22;;;;;;;0.10;0.10;;;14.70;79.10;;;;;;5067287;28;20069;-71
2021/09/23 11:26:49;;;;;;;0.10;0.10;;;14.60;78.80;;;;;;5046010;28;20653;-74
2021/09/23 11:29:17;;;;;;;0.10;0.10;;;14.50;79.00;;;;;;5046545;28;20131;-76
2021/09/23 11:31:55;;;;;;;0.10;0.10;;;14.40;79.10;;;;;;5065110;28;20164;-74
2021/09/23 11:34:32;;;;;;;0.10;0.10;;;14.50;79.00;;;;;;5068865;28;20130;-76
2021/09/23 11:36:58;;;;;;;0.10;0.10;;;14.80;79.20;;;;;;5067399;28;20101;-75
2021/09/23 11:39:24;;;;;;;0.00;0.00;;;15.10;78.90;;;;;;5068589;28;20069;-73
2021/09/23 11:42:11;;;;;;;0.10;0.10;;;15.40;78.00;;;;;;5065482;28;20083;-73
2021/09/23 11:44:38;;;;;;;0.00;0.00;;;15.60;76.60;;;;;;5063262;28;20179;-76
2021/09/23 11:47:04;;;;;;;0.10;0.10;;;15.60;75.90;;;;;;5064940;28;20180;-74
2021/09/23 11:49:31;;;;;;;0.08;0.08;;;15.50;75.00;;;;;;5066913;28;20069;-74
2021/09/23 11:51:56;;;;;;;0.10;0.10;;;15.40;74.70;;;;;;5068134;28;20477;-72
2021/09/23 11:54:24;;;;;;;0.05;0.05;;;15.20;74.50;;;;;;5069032;28;20062;-73
2021/09/23 11:56:49;;;;;;;0.10;0.10;;;14.90;74.20;;;;;;5049447;28;20595;-72
2021/09/23 11:59:20;;;;;;;0.10;0.10;;;14.70;74.40;;;;;;5068193;28;20069;-73
2021/09/23 12:01:46;;;;;;;0.10;0.10;;;14.40;74.60;;;;;;5068795;28;20196;-70
2021/09/23 12:04:12;;;;;;;0.10;0.10;;;14.20;74.40;;;;;;5067951;28;20162;-77
2021/09/23 12:06:38;;;;;;;0.10;0.10;;;13.90;75.00;;;;;;5045044;23;20192;-84
2021/09/23 12:09:09;;;;;;;0.10;0.10;;;13.70;75.50;;;;;;5008176;28;20447;-85
2021/09/23 12:11:35;;;;;;;0.10;0.10;;;13.50;75.90;;;;;;5025925;28;20156;-84
2021/09/23 12:14:06;;;;;;;0.10;0.10;;;13.40;76.60;;;;;;5007541;28;20321;-83
2021/09/23 12:16:32;;;;;;;0.10;0.10;;;13.30;76.90;;;;;;5010962;28;20114;-82
2021/09/23 12:18:58;;;;;;;0.10;0.10;;;13.20;77.00;;;;;;5013093;28;20119;-83
2021/09/23 12:21:25;;;;;;;0.03;0.03;;;13.10;77.50;;;;;;5030241;28;20094;-82
2021/09/23 12:23:56;;;;;;;0.10;0.10;;;13.10;77.70;;;;;;5011260;28;20070;-84
2021/09/23 12:26:26;;;;;;;0.10;0.10;;;13.10;77.90;;;;;;5029101;28;20169;-85
2021/09/23 12:29:06;;;;;;;0.10;0.10;;;13.10;78.00;;;;;;5028196;28;20101;-80
2021/09/23 12:31:33;;;;;;;0.10;0.10;;;13.20;78.00;;;;;;5026871;28;20563;-76
2021/09/23 12:34:12;;;;;;;0.10;0.10;;;13.10;78.10;;;;;;5027719;28;20077;-81
2021/09/23 12:36:41;;;;;;;0.10;0.10;;;13.00;78.20;;;;;;5013047;28;20174;-83
2021/09/23 12:39:20;;;;;;;0.10;0.10;;;13.00;78.60;;;;;;5033361;28;20069;-82
2021/09/23 12:41:52;;;;;;;0.10;0.10;;;13.00;78.90;;;;;;5034914;28;20404;-81
2021/09/23 12:44:26;;;;;;;0.10;0.10;;;13.00;79.10;;;;;;5035614;28;20080;-81
2021/09/23 12:47:13;;;;;;;0.10;0.10;;;13.10;79.10;;;;;;5035330;28;20085;-81
2021/09/23 12:50:06;;;;;;;0.10;0.10;;;13.20;78.90;;;;;;5016729;28;20102;-81
2021/09/23 12:52:40;;;;;;;0.10;0.10;;;13.20;78.40;;;;;;5013688;28;20102;-80